createdAt,value
2018-12-12T00:02:21.237Z,0.30
2018-12-12T00:04:49.401Z,0.30
2018-12-12T00:07:18.355Z,0.30
2018-12-12T00:09:46.786Z,0.30
2018-12-12T00:12:15.154Z,0.30
2018-12-12T00:14:43.285Z,0.30
2018-12-12T00:17:11.522Z,0.30
2018-12-12T00:19:39.661Z,0.30
2018-12-12T00:22:07.852Z,0.30
2018-12-12T00:24:36.089Z,0.30
2018-12-12T00:27:04.312Z,0.30
2018-12-12T00:29:32.454Z,0.30
2018-12-12T00:32:00.694Z,0.30
2018-12-12T00:34:28.823Z,0.30
2018-12-12T00:36:56.973Z,0.30
2018-12-12T00:39:25.134Z,0.30
2018-12-12T00:41:53.737Z,0.20
2018-12-12T00:44:22.001Z,0.20
2018-12-12T00:46:50.533Z,0.20
2018-12-12T00:49:18.825Z,0.20
2018-12-12T00:51:49.166Z,0.20
2018-12-12T00:54:17.243Z,0.10
2018-12-12T00:56:45.438Z,0.20
2018-12-12T00:59:13.781Z,0.20
2018-12-12T01:01:41.990Z,0.10
2018-12-12T01:04:10.058Z,0.10
2018-12-12T01:06:38.232Z,0.10
2018-12-12T01:09:07.824Z,0.10
2018-12-12T01:11:41.422Z,0.10
2018-12-12T01:14:09.515Z,0.20
2018-12-12T01:16:37.676Z,0.10
2018-12-12T01:19:05.855Z,0.10
2018-12-12T01:21:34.014Z,0.10
2018-12-12T01:24:02.210Z,0.10
2018-12-12T01:26:30.567Z,0.10
2018-12-12T01:28:58.763Z,0.10
2018-12-12T01:31:26.909Z,0.10
2018-12-12T01:33:55.110Z,0.20
2018-12-12T01:36:23.261Z,0.20
2018-12-12T01:38:51.380Z,0.20
2018-12-12T01:41:19.525Z,0.20
2018-12-12T01:43:47.565Z,0.20
2018-12-12T01:46:15.760Z,0.20
2018-12-12T01:48:44.125Z,0.20
2018-12-12T01:51:12.305Z,0.10
2018-12-12T01:53:41.094Z,0.10
2018-12-12T01:56:09.737Z,0.20
2018-12-12T01:58:38.918Z,0.20
2018-12-12T02:01:07.581Z,0.20
2018-12-12T02:03:36.023Z,0.20
2018-12-12T02:06:04.431Z,0.10
2018-12-12T02:08:32.605Z,0.10
2018-12-12T02:11:00.917Z,0.10
2018-12-12T02:13:36.425Z,0.10
2018-12-12T02:16:07.470Z,0.10
2018-12-12T02:18:37.843Z,0.20
2018-12-12T02:21:05.972Z,0.20
2018-12-12T02:23:34.132Z,0.20
2018-12-12T02:26:02.329Z,0.10
2018-12-12T02:28:30.495Z,0.10
2018-12-12T02:30:58.547Z,0.10
2018-12-12T02:33:26.626Z,0.10
2018-12-12T02:35:55.379Z,0.10
2018-12-12T02:38:23.585Z,0.10
2018-12-12T02:40:51.733Z,0.10
2018-12-12T02:43:19.931Z,0.10
2018-12-12T02:45:48.032Z,0.10
2018-12-12T02:48:16.180Z,0.10
2018-12-12T02:50:44.356Z,0.10
2018-12-12T02:53:12.401Z,0.10
2018-12-12T02:55:40.596Z,0.10
2018-12-12T02:58:08.681Z,0.10
2018-12-12T03:00:36.740Z,0.10
2018-12-12T03:03:05.046Z,0.10
2018-12-12T03:05:33.254Z,0.10
2018-12-12T03:08:01.453Z,0.10
2018-12-12T03:10:29.606Z,0.10
2018-12-12T03:12:57.717Z,0.00
2018-12-12T03:15:26.070Z,0.10
2018-12-12T03:17:54.263Z,0.10
2018-12-12T03:20:22.427Z,0.10
2018-12-12T03:22:50.885Z,0.10
2018-12-12T03:25:19.108Z,0.10
2018-12-12T03:27:47.141Z,0.10
2018-12-12T03:30:15.323Z,0.10
2018-12-12T03:32:43.479Z,0.10
2018-12-12T03:35:11.578Z,0.10
2018-12-12T03:37:39.757Z,0.10
2018-12-12T03:40:08.270Z,0.10
2018-12-12T03:42:36.635Z,0.10
2018-12-12T03:45:05.375Z,0.10
2018-12-12T03:47:33.566Z,0.10
2018-12-12T03:50:01.757Z,0.10
2018-12-12T03:52:29.777Z,0.10
2018-12-12T03:54:57.886Z,0.10
2018-12-12T03:57:25.924Z,0.10
2018-12-12T03:59:54.139Z,0.10
2018-12-12T04:02:22.287Z,0.10
2018-12-12T04:04:50.415Z,0.10
2018-12-12T04:07:18.847Z,0.00
2018-12-12T04:09:46.882Z,0.00
2018-12-12T04:12:14.988Z,0.00
2018-12-12T04:14:43.039Z,0.00
2018-12-12T04:17:12.212Z,0.00
2018-12-12T04:19:40.515Z,0.00
2018-12-12T04:22:08.817Z,0.00
2018-12-12T04:24:37.339Z,0.00
2018-12-12T04:27:05.465Z,0.00
2018-12-12T04:29:33.626Z,0.00
2018-12-12T04:32:01.746Z,0.00
2018-12-12T04:34:29.853Z,0.00
2018-12-12T04:36:58.483Z,0.00
2018-12-12T04:39:26.626Z,0.00
2018-12-12T04:41:54.834Z,-0.10
2018-12-12T04:44:22.973Z,-0.10
2018-12-12T04:46:51.167Z,-0.10
2018-12-12T04:49:19.430Z,-0.10
2018-12-12T04:51:48.844Z,-0.10
2018-12-12T04:54:17.006Z,-0.20
2018-12-12T04:56:45.149Z,-0.20
2018-12-12T04:59:13.505Z,-0.20
2018-12-12T05:01:41.822Z,-0.20
2018-12-12T05:04:10.003Z,-0.20
2018-12-12T05:06:38.056Z,-0.20
2018-12-12T05:09:07.098Z,-0.20
2018-12-12T05:11:36.870Z,-0.20
2018-12-12T05:14:05.149Z,-0.20
2018-12-12T05:16:33.309Z,-0.20
2018-12-12T05:19:01.419Z,-0.20
2018-12-12T05:21:29.544Z,-0.20
2018-12-12T05:23:58.264Z,-0.30
2018-12-12T05:26:26.512Z,-0.30
2018-12-12T05:28:54.720Z,-0.30
2018-12-12T05:31:22.787Z,-0.30
2018-12-12T05:33:50.855Z,-0.30
2018-12-12T05:36:18.922Z,-0.30
2018-12-12T05:38:47.181Z,-0.30
2018-12-12T05:41:15.365Z,-0.30
2018-12-12T05:43:43.543Z,-0.30
2018-12-12T05:46:11.620Z,-0.30
2018-12-12T05:48:39.763Z,-0.30
2018-12-12T05:51:07.866Z,-0.30
2018-12-12T05:53:36.274Z,-0.30
2018-12-12T05:56:04.328Z,-0.30
2018-12-12T05:58:32.351Z,-0.30
2018-12-12T06:01:00.548Z,-0.30
2018-12-12T06:03:28.906Z,-0.30
2018-12-12T06:05:57.106Z,-0.30
2018-12-12T06:08:25.148Z,-0.30
2018-12-12T06:10:53.346Z,-0.30
2018-12-12T06:13:21.499Z,-0.30
2018-12-12T06:15:49.708Z,-0.30
2018-12-12T06:18:17.854Z,-0.30
2018-12-12T06:20:46.138Z,-0.30
2018-12-12T06:23:14.190Z,-0.30
2018-12-12T06:25:42.370Z,-0.30
2018-12-12T06:28:10.429Z,-0.30
2018-12-12T06:30:38.624Z,-0.30
2018-12-12T06:33:06.834Z,-0.30
2018-12-12T06:35:35.591Z,-0.20
2018-12-12T06:38:03.987Z,-0.30
2018-12-12T06:40:32.113Z,-0.30
2018-12-12T06:43:00.263Z,-0.30
2018-12-12T06:45:28.578Z,-0.30
2018-12-12T06:47:58.044Z,-0.30
2018-12-12T06:50:26.453Z,-0.30
2018-12-12T06:52:54.573Z,-0.20
2018-12-12T06:55:22.803Z,-0.20
2018-12-12T06:57:51.106Z,-0.20
2018-12-12T07:00:19.346Z,-0.20
2018-12-12T07:02:47.571Z,-0.20
2018-12-12T07:05:15.589Z,-0.20
2018-12-12T07:07:44.055Z,-0.20
2018-12-12T07:10:12.389Z,-0.20
2018-12-12T07:12:40.445Z,-0.20
2018-12-12T07:15:08.705Z,-0.20
2018-12-12T07:17:36.903Z,-0.20
2018-12-12T07:20:05.146Z,-0.20
2018-12-12T07:22:33.338Z,-0.20
2018-12-12T07:25:01.519Z,-0.10
2018-12-12T07:27:29.570Z,-0.10
2018-12-12T07:29:57.645Z,-0.10
2018-12-12T07:32:26.353Z,-0.10
2018-12-12T07:34:54.725Z,-0.10
2018-12-12T07:37:23.594Z,-0.10
2018-12-12T07:39:51.882Z,-0.10
2018-12-12T07:42:20.034Z,0.00
2018-12-12T07:44:48.225Z,0.00
2018-12-12T07:47:16.430Z,0.00
2018-12-12T07:49:44.493Z,0.00
2018-12-12T07:52:13.074Z,0.00
2018-12-12T07:54:41.446Z,0.10
2018-12-12T07:57:10.435Z,0.10
2018-12-12T07:59:38.490Z,0.10
2018-12-12T08:02:06.774Z,0.10
2018-12-12T08:04:34.978Z,0.10
2018-12-12T08:07:03.236Z,0.10
2018-12-12T08:09:31.361Z,0.20
2018-12-12T08:11:59.489Z,0.20
2018-12-12T08:14:27.627Z,0.30
2018-12-12T08:16:55.928Z,0.30
2018-12-12T08:19:24.198Z,0.30
2018-12-12T08:21:52.397Z,0.30
2018-12-12T08:24:20.539Z,0.30
2018-12-12T08:26:48.835Z,0.30
2018-12-12T08:29:17.085Z,0.30
2018-12-12T08:31:45.362Z,0.30
2018-12-12T08:34:13.509Z,0.40
2018-12-12T08:36:41.801Z,0.40
2018-12-12T08:39:09.885Z,0.40
2018-12-12T08:41:37.987Z,0.40
2018-12-12T08:44:06.229Z,0.40
2018-12-12T08:46:34.428Z,0.40
2018-12-12T08:49:02.598Z,0.40
2018-12-12T08:51:30.955Z,0.40
2018-12-12T08:53:59.321Z,0.40
2018-12-12T08:56:27.509Z,0.40
2018-12-12T08:58:56.619Z,0.40
2018-12-12T09:01:25.446Z,0.40
2018-12-12T09:03:53.551Z,0.40
2018-12-12T09:06:21.637Z,0.50
2018-12-12T09:10:23.902Z,0.40
2018-12-12T09:12:51.992Z,0.40
2018-12-12T09:15:20.148Z,0.40
2018-12-12T09:17:48.347Z,0.50
2018-12-12T09:20:16.391Z,0.50
2018-12-12T09:22:44.602Z,0.50
2018-12-12T09:25:12.643Z,0.50
2018-12-12T09:27:40.859Z,0.50
2018-12-12T09:30:09.269Z,0.50
2018-12-12T09:32:37.578Z,0.60
2018-12-12T09:35:06.344Z,0.60
2018-12-12T09:38:27.274Z,0.60
2018-12-12T09:40:55.352Z,0.70
2018-12-12T09:43:23.700Z,0.70
2018-12-12T09:45:52.138Z,0.70
2018-12-12T09:48:21.273Z,0.70
2018-12-12T09:50:49.594Z,0.80
2018-12-12T09:53:18.084Z,0.80
2018-12-12T09:55:46.324Z,0.90
2018-12-12T09:58:14.523Z,0.90
2018-12-12T10:00:42.660Z,0.90
2018-12-12T10:03:10.887Z,0.90
2018-12-12T10:05:39.202Z,1.00
2018-12-12T10:08:07.500Z,1.00
2018-12-12T10:10:35.567Z,0.90
2018-12-12T10:13:04.654Z,0.90
2018-12-12T10:15:32.934Z,1.00
2018-12-12T10:18:01.143Z,0.90
2018-12-12T10:20:29.162Z,1.00
2018-12-12T10:22:57.260Z,1.00
2018-12-12T10:25:25.302Z,1.00
2018-12-12T10:27:53.610Z,1.00
2018-12-12T10:30:21.646Z,1.00
2018-12-12T10:32:49.853Z,1.00
2018-12-12T10:35:18.105Z,1.00
2018-12-12T10:37:46.193Z,1.00
2018-12-12T10:40:14.370Z,1.00
2018-12-12T10:42:42.542Z,1.00
2018-12-12T10:45:10.742Z,1.00
2018-12-12T10:47:38.876Z,1.10
2018-12-12T10:50:08.911Z,1.10
2018-12-12T10:52:37.155Z,1.00
2018-12-12T10:55:05.861Z,1.10
2018-12-12T10:57:34.134Z,1.10
2018-12-12T11:00:02.194Z,1.20
2018-12-12T11:02:31.764Z,1.20
2018-12-12T11:05:00.094Z,1.20
2018-12-12T11:07:28.448Z,1.10
2018-12-12T11:09:56.540Z,1.00
2018-12-12T11:12:24.611Z,1.00
2018-12-12T11:14:52.656Z,1.00
2018-12-12T11:17:20.873Z,1.00
2018-12-12T11:19:48.909Z,1.00
2018-12-12T11:22:17.092Z,1.10
2018-12-12T11:24:45.359Z,1.00
2018-12-12T11:27:13.653Z,1.00
2018-12-12T11:29:41.716Z,1.00
2018-12-12T11:32:09.819Z,1.10
2018-12-12T11:34:37.848Z,1.20
2018-12-12T11:37:06.058Z,1.30
2018-12-12T11:39:34.093Z,1.40
2018-12-12T11:42:02.194Z,1.50
2018-12-12T11:44:30.321Z,1.50
2018-12-12T11:46:58.418Z,1.40
2018-12-12T11:49:26.505Z,1.40
2018-12-12T11:51:54.624Z,1.40
2018-12-12T11:54:22.871Z,1.50
2018-12-12T11:56:50.913Z,1.40
2018-12-12T11:59:19.064Z,1.40
2018-12-12T12:01:47.450Z,1.40
2018-12-12T12:04:15.663Z,1.50
2018-12-12T12:06:43.686Z,1.50
2018-12-12T12:09:11.877Z,1.50
2018-12-12T12:11:39.941Z,1.50
2018-12-12T12:14:08.030Z,1.40
2018-12-12T12:16:36.302Z,1.40
2018-12-12T12:19:04.502Z,1.40
2018-12-12T12:21:32.755Z,1.40
2018-12-12T12:24:00.982Z,1.40
2018-12-12T12:26:29.341Z,1.40
2018-12-12T12:28:57.822Z,1.40
2018-12-12T12:31:25.990Z,1.40
2018-12-12T12:33:54.390Z,1.40
2018-12-12T12:36:22.671Z,1.40
2018-12-12T12:38:50.781Z,1.40
2018-12-12T12:41:19.034Z,1.40
2018-12-12T12:43:47.146Z,1.40
2018-12-12T12:46:15.183Z,1.40
2018-12-12T12:48:44.162Z,1.40
2018-12-12T12:51:12.457Z,1.40
2018-12-12T12:53:40.941Z,1.30
2018-12-12T12:56:09.226Z,1.30
2018-12-12T12:58:37.386Z,1.20
2018-12-12T13:01:05.506Z,1.10
2018-12-12T13:03:33.518Z,1.10
2018-12-12T13:06:01.966Z,1.10
2018-12-12T13:08:30.171Z,1.10
2018-12-12T13:10:58.471Z,1.10
2018-12-12T13:13:26.913Z,1.10
2018-12-12T13:15:55.676Z,1.20
2018-12-12T13:18:23.814Z,1.30
2018-12-12T13:20:51.906Z,1.40
2018-12-12T13:23:20.060Z,1.50
2018-12-12T13:25:48.211Z,1.50
2018-12-12T13:28:16.270Z,1.60
2018-12-12T13:30:44.467Z,1.60
2018-12-12T13:33:12.722Z,1.60
2018-12-12T13:35:41.129Z,1.70
2018-12-12T13:38:10.412Z,1.70
2018-12-12T13:40:39.307Z,1.70
2018-12-12T13:43:07.484Z,1.70
2018-12-12T13:45:35.638Z,1.70
2018-12-12T13:48:03.818Z,1.60
2018-12-12T13:50:32.082Z,1.70
2018-12-12T13:53:00.175Z,1.60
2018-12-12T13:55:28.337Z,1.70
2018-12-12T13:57:56.428Z,1.70
2018-12-12T14:00:24.472Z,1.70
2018-12-12T14:02:52.581Z,1.70
2018-12-12T14:05:20.726Z,1.70
2018-12-12T14:07:48.910Z,1.70
2018-12-12T14:10:17.289Z,1.70
2018-12-12T14:12:45.962Z,1.80
2018-12-12T14:15:14.780Z,1.80
2018-12-12T14:17:42.855Z,1.80
2018-12-12T14:20:11.079Z,1.90
2018-12-12T14:22:39.295Z,1.90
2018-12-12T14:25:07.454Z,1.90
2018-12-12T14:27:38.885Z,1.90
2018-12-12T14:30:06.452Z,1.90
2018-12-12T14:32:34.493Z,1.90
2018-12-12T14:35:02.601Z,1.90
2018-12-12T14:37:30.651Z,1.90
2018-12-12T14:39:58.870Z,1.90
2018-12-12T14:42:27.026Z,1.80
2018-12-12T14:44:55.203Z,1.80
2018-12-12T14:47:23.363Z,1.70
2018-12-12T14:49:51.553Z,1.60
2018-12-12T14:52:19.589Z,1.50
2018-12-12T14:54:47.678Z,1.50
2018-12-12T14:57:15.726Z,1.50
2018-12-12T14:59:44.051Z,1.40
2018-12-12T15:02:12.166Z,1.40
2018-12-12T15:04:40.266Z,1.30
2018-12-12T15:07:08.310Z,1.30
2018-12-12T15:09:36.530Z,1.20
2018-12-12T15:12:04.674Z,1.10
2018-12-12T15:14:32.769Z,1.00
2018-12-12T15:17:00.934Z,1.00
2018-12-12T15:19:29.090Z,0.90
2018-12-12T15:21:57.203Z,0.90
2018-12-12T15:24:25.430Z,0.90
2018-12-12T15:26:53.841Z,0.90
2018-12-12T15:29:22.192Z,0.80
2018-12-12T15:31:50.503Z,0.80
2018-12-12T15:34:18.618Z,0.90
2018-12-12T15:36:46.754Z,0.90
2018-12-12T15:39:15.488Z,0.90
2018-12-12T15:41:43.597Z,1.00
2018-12-12T15:44:11.847Z,1.00
2018-12-12T15:46:39.958Z,1.00
2018-12-12T15:49:07.992Z,1.00
2018-12-12T15:51:36.708Z,1.00
2018-12-12T15:54:04.850Z,1.00
2018-12-12T15:56:33.054Z,1.00
2018-12-12T15:59:01.087Z,1.00
2018-12-12T16:01:29.275Z,1.00
2018-12-12T16:03:57.478Z,0.90
2018-12-12T16:06:25.642Z,0.90
2018-12-12T16:08:53.825Z,0.90
2018-12-12T16:11:22.103Z,0.90
2018-12-12T16:13:50.150Z,1.00
2018-12-12T16:16:18.312Z,1.00
2018-12-12T16:18:46.419Z,1.00
2018-12-12T16:21:14.578Z,1.00
2018-12-12T16:23:42.771Z,0.90
2018-12-12T16:26:10.911Z,0.70
2018-12-12T16:28:39.348Z,0.60
2018-12-12T16:31:07.858Z,0.40
2018-12-12T16:33:42.845Z,0.30
2018-12-12T16:36:11.179Z,0.30
2018-12-12T16:38:39.368Z,0.20
2018-12-12T16:41:07.821Z,0.20
2018-12-12T16:43:36.229Z,0.30
2018-12-12T16:46:04.502Z,0.20
2018-12-12T16:48:32.772Z,0.20
2018-12-12T16:51:00.917Z,0.30
2018-12-12T16:53:29.139Z,0.30
2018-12-12T16:55:57.490Z,0.30
2018-12-12T16:58:25.950Z,0.30
2018-12-12T17:00:54.145Z,0.30
2018-12-12T17:03:22.389Z,0.30
2018-12-12T17:05:50.606Z,0.30
2018-12-12T17:08:18.943Z,0.30
2018-12-12T17:10:47.145Z,0.20
2018-12-12T17:13:15.190Z,0.30
2018-12-12T17:15:43.493Z,0.30
2018-12-12T17:18:11.537Z,0.30
2018-12-12T17:20:40.268Z,0.20
2018-12-12T17:23:08.395Z,0.20
2018-12-12T17:25:36.486Z,0.10
2018-12-12T17:28:04.538Z,0.10
2018-12-12T17:30:32.713Z,0.00
2018-12-12T17:33:00.983Z,-0.10
2018-12-12T17:35:29.918Z,-0.20
2018-12-12T17:37:58.070Z,-0.10
2018-12-12T17:40:26.161Z,-0.10
2018-12-12T17:42:54.302Z,-0.10
2018-12-12T17:45:22.370Z,-0.10
2018-12-12T17:47:50.584Z,-0.10
2018-12-12T17:50:18.738Z,-0.10
2018-12-12T17:52:46.906Z,-0.10
2018-12-12T17:55:15.081Z,-0.10
2018-12-12T17:57:43.369Z,-0.10
2018-12-12T18:00:11.796Z,-0.10
2018-12-12T18:02:39.943Z,-0.10
2018-12-12T18:05:08.055Z,-0.10
2018-12-12T18:07:36.154Z,-0.10
2018-12-12T18:10:04.600Z,-0.10
2018-12-12T18:12:32.815Z,-0.10
2018-12-12T18:15:00.967Z,-0.10
2018-12-12T18:17:29.155Z,-0.10
2018-12-12T18:19:57.298Z,-0.10
2018-12-12T18:22:25.449Z,-0.10
2018-12-12T18:24:53.652Z,-0.10
2018-12-12T18:27:21.969Z,-0.10
2018-12-12T18:29:50.136Z,0.00
2018-12-12T18:32:18.934Z,0.00
2018-12-12T18:34:47.085Z,-0.10
2018-12-12T18:37:15.448Z,-0.10
2018-12-12T18:39:43.658Z,-0.10
2018-12-12T18:42:12.495Z,-0.10
2018-12-12T18:44:41.116Z,-0.20
2018-12-12T18:47:09.483Z,-0.20
2018-12-12T18:49:38.416Z,-0.30
2018-12-12T18:52:07.247Z,-0.40
2018-12-12T18:54:35.434Z,-0.40
2018-12-12T18:57:03.507Z,-0.50
2018-12-12T18:59:32.315Z,-0.50
2018-12-12T19:02:00.408Z,-0.50
2018-12-12T19:04:28.466Z,-0.50
2018-12-12T19:06:56.909Z,-0.50
2018-12-12T19:09:25.208Z,-0.50
2018-12-12T19:11:53.358Z,-0.60
2018-12-12T19:14:21.848Z,-0.70
2018-12-12T19:16:49.890Z,-0.60
2018-12-12T19:19:18.097Z,-0.40
2018-12-12T19:21:50.523Z,-0.40
2018-12-12T19:24:18.634Z,-0.30
2018-12-12T19:26:46.920Z,-0.30
2018-12-12T19:29:14.971Z,-0.20
2018-12-12T19:31:44.109Z,-0.20
2018-12-12T19:34:12.241Z,-0.40
2018-12-12T19:36:40.361Z,-0.60
2018-12-12T19:39:10.130Z,-0.70
2018-12-12T19:41:39.090Z,-0.70
2018-12-12T19:44:07.193Z,-0.50
2018-12-12T19:46:35.387Z,-0.50
2018-12-12T19:49:04.451Z,-0.50
2018-12-12T19:51:32.646Z,-0.60
2018-12-12T19:54:02.114Z,-0.70
2018-12-12T19:56:30.226Z,-0.80
2018-12-12T19:59:02.960Z,-0.90
2018-12-12T20:01:32.819Z,-0.90
2018-12-12T20:04:03.438Z,-0.90
2018-12-12T20:06:31.806Z,-0.90
2018-12-12T20:09:00.938Z,-1.00
2018-12-12T20:11:30.214Z,-1.20
2018-12-12T20:13:59.483Z,-1.20
2018-12-12T20:16:28.143Z,-1.20
2018-12-12T20:18:57.690Z,-1.10
2018-12-12T20:21:27.108Z,-1.00
2018-12-12T20:23:55.278Z,-1.00
2018-12-12T20:26:23.930Z,-0.90
2018-12-12T20:28:52.060Z,-0.80
2018-12-12T20:31:21.611Z,-0.70
2018-12-12T20:33:50.647Z,-0.70
2018-12-12T20:36:19.383Z,-0.60
2018-12-12T20:38:49.188Z,-0.60
2018-12-12T20:41:18.938Z,-0.50
2018-12-12T20:43:49.344Z,-0.50
2018-12-12T20:46:18.132Z,-0.40
2018-12-12T20:48:47.156Z,-0.40
2018-12-12T20:51:15.711Z,-0.40
2018-12-12T20:53:43.802Z,-0.40
2018-12-12T20:56:12.370Z,-0.50
2018-12-12T20:58:41.085Z,-0.50
2018-12-12T21:01:10.294Z,-0.50
2018-12-12T21:03:38.727Z,-0.50
2018-12-12T21:06:07.745Z,-0.40
2018-12-12T21:08:35.798Z,-0.40
2018-12-12T21:11:04.345Z,-0.30
2018-12-12T21:13:32.443Z,-0.30
2018-12-12T21:16:01.339Z,-0.30
2018-12-12T21:18:29.926Z,-0.30
2018-12-12T21:20:58.001Z,-0.30
2018-12-12T21:23:26.220Z,-0.20
2018-12-12T21:25:56.249Z,-0.20
2018-12-12T21:28:24.456Z,-0.20
2018-12-12T21:30:52.554Z,-0.20
2018-12-12T21:33:20.711Z,-0.20
2018-12-12T21:35:48.924Z,-0.20
2018-12-12T21:38:17.151Z,-0.20
2018-12-12T21:40:45.379Z,-0.20
2018-12-12T21:43:14.215Z,-0.20
2018-12-12T21:45:46.827Z,-0.20
2018-12-12T21:48:14.966Z,-0.10
2018-12-12T21:50:43.394Z,-0.10
2018-12-12T21:53:11.443Z,-0.10
2018-12-12T21:55:39.656Z,-0.10
2018-12-12T21:58:07.989Z,-0.10
2018-12-12T22:00:37.124Z,-0.10
2018-12-12T22:03:05.463Z,-0.10
2018-12-12T22:05:33.929Z,-0.10
2018-12-12T22:08:02.702Z,-0.20
2018-12-12T22:10:31.092Z,-0.30
2018-12-12T22:12:59.273Z,-0.40
2018-12-12T22:15:27.424Z,-0.50
2018-12-12T22:17:55.753Z,-0.60
2018-12-12T22:20:24.119Z,-0.70
2018-12-12T22:22:52.286Z,-0.80
2018-12-12T22:25:20.302Z,-0.80
2018-12-12T22:27:48.434Z,-0.90
2018-12-12T22:30:16.480Z,-1.00
2018-12-12T22:32:44.766Z,-1.00
2018-12-12T22:35:13.136Z,-1.00
2018-12-12T22:37:41.922Z,-1.00
2018-12-12T22:40:10.178Z,-1.00
2018-12-12T22:42:38.299Z,-1.00
2018-12-12T22:45:06.419Z,-1.10
2018-12-12T22:47:34.591Z,-1.00
2018-12-12T22:50:02.708Z,-1.00
2018-12-12T22:52:31.042Z,-1.00
2018-12-12T22:54:59.353Z,-1.00
2018-12-12T22:57:27.699Z,-1.00
2018-12-12T22:59:55.912Z,-1.00
2018-12-12T23:02:23.938Z,-1.00
2018-12-12T23:04:52.370Z,-1.00
2018-12-12T23:07:20.388Z,-0.90
2018-12-12T23:09:48.511Z,-0.90
2018-12-12T23:12:16.527Z,-0.90
2018-12-12T23:14:44.846Z,-0.90
2018-12-12T23:17:13.933Z,-0.90
2018-12-12T23:19:41.995Z,-0.80
2018-12-12T23:22:10.158Z,-0.80
2018-12-12T23:24:38.353Z,-0.80
2018-12-12T23:27:06.424Z,-0.80
2018-12-12T23:29:34.603Z,-0.80
2018-12-12T23:32:03.157Z,-0.80
2018-12-12T23:34:31.246Z,-0.80
2018-12-12T23:37:00.190Z,-0.80
2018-12-12T23:39:28.286Z,-0.80
2018-12-12T23:41:56.458Z,-0.80
2018-12-12T23:44:24.845Z,-0.80
2018-12-12T23:46:53.049Z,-0.80
2018-12-12T23:49:21.094Z,-0.80
2018-12-12T23:51:49.917Z,-0.90
2018-12-12T23:54:18.049Z,-0.80
2018-12-12T23:56:46.133Z,-0.90
2018-12-12T23:59:14.395Z,-0.90
